Time;durP1;ratioP1;P1;durP2;ratioP2;P2;SDS_P1;SDS_P2;PMS_P1;PMS_P2;Temp;Humidity;BMP_temperature;BMP_pressure;BME280_temperature;BME280_humidity;BME280_pressure;Samples;Min_cycle;Max_cycle;Signal;HPM_P1;HPM_P2
2023/09/13 00:00:59;;;;;;;13.48;10.05;;;19.90;99.90;;;;;;2585648;54;20022;31
2023/09/13 00:03:40;;;;;;;;;;;19.90;99.90;;;;;;2585839;54;20085;31
2023/09/13 00:06:21;;;;;;;14.80;9.93;;;19.80;99.90;;;;;;2755377;31;22298;31
2023/09/13 00:08:57;;;;;;;16.52;11.40;;;19.80;99.90;;;;;;2683619;39;22463;31
2023/09/13 00:11:36;;;;;;;14.10;10.20;;;19.80;99.90;;;;;;2586209;54;21601;31
2023/09/13 00:14:14;;;;;;;18.10;9.93;;;19.70;99.90;;;;;;2586256;54;20081;31
2023/09/13 00:16:51;;;;;;;14.32;10.27;;;19.60;99.90;;;;;;2586493;54;20760;31
2023/09/13 00:19:31;;;;;;;16.17;10.18;;;19.60;99.90;;;;;;2585584;54;20022;31
2023/09/13 00:22:08;;;;;;;13.35;9.10;;;19.60;99.90;;;;;;2585567;54;21625;31
2023/09/13 00:24:41;;;;;;;14.63;9.37;;;19.50;99.90;;;;;;2585654;54;19942;31
2023/09/13 00:27:13;;;;;;;13.57;8.77;;;19.50;99.90;;;;;;2586446;54;20250;31
2023/09/13 00:29:53;;;;;;;13.57;9.93;;;19.50;99.90;;;;;;2604265;46;21129;31
2023/09/13 00:32:30;;;;;;;15.35;11.13;;;19.50;99.90;;;;;;2585986;54;20053;31
2023/09/13 00:35:10;;;;;;;12.68;10.20;;;19.40;99.90;;;;;;2586106;54;20153;31
2023/09/13 00:37:44;;;;;;;14.88;10.57;;;19.40;99.90;;;;;;2604515;46;20065;31
2023/09/13 00:40:21;;;;;;;15.15;10.80;;;19.30;99.90;;;;;;2586355;54;20038;31
2023/09/13 00:42:59;;;;;;;14.93;10.00;;;19.30;99.90;;;;;;2586128;54;20083;31
2023/09/13 00:45:37;;;;;;;14.73;9.43;;;19.20;99.90;;;;;;2585788;54;20031;31
2023/09/13 00:48:17;;;;;;;11.85;9.43;;;19.10;99.90;;;;;;2604874;46;20773;31
2023/09/13 00:51:11;;;;;;;14.15;10.02;;;19.10;99.90;;;;;;2586370;54;20026;31
2023/09/13 00:53:47;;;;;;;17.00;11.10;;;19.10;99.90;;;;;;2586009;54;20022;31
2023/09/13 00:56:25;;;;;;;16.98;11.10;;;19.10;99.90;;;;;;2586206;54;20253;31
2023/09/13 00:59:01;;;;;;;15.95;10.82;;;19.00;99.90;;;;;;2585343;54;20893;31
2023/09/13 01:01:37;;;;;;;15.55;10.68;;;19.00;99.90;;;;;;2586148;54;20030;31
2023/09/13 01:04:11;;;;;;;18.33;10.40;;;19.00;99.90;;;;;;2586181;54;20061;31
2023/09/13 01:06:50;;;;;;;18.17;10.55;;;19.00;99.90;;;;;;2585575;54;21064;31
2023/09/13 01:09:27;;;;;;;15.87;10.13;;;18.90;99.90;;;;;;2585185;54;20030;31
2023/09/13 01:12:07;;;;;;;16.38;10.60;;;18.90;99.90;;;;;;2592683;46;20930;31
2023/09/13 01:14:43;;;;;;;15.35;11.00;;;18.80;99.90;;;;;;2586069;54;20097;31
2023/09/13 01:17:22;;;;;;;;;;;18.80;99.90;;;;;;2586337;54;20085;31
2023/09/13 01:20:07;;;;;;;14.10;10.60;;;18.80;99.90;;;;;;2593586;46;19949;31
2023/09/13 01:23:03;;;;;;;14.15;11.02;;;18.70;99.90;;;;;;2586387;54;20978;31
2023/09/13 01:25:37;;;;;;;15.85;10.52;;;18.60;99.90;;;;;;2604736;46;21264;31
2023/09/13 01:28:15;;;;;;;17.02;10.68;;;18.70;99.90;;;;;;2604584;46;20026;31
2023/09/13 01:30:58;;;;;;;14.70;11.00;;;18.60;99.90;;;;;;2585821;54;20029;31
2023/09/13 01:33:37;;;;;;;17.63;11.35;;;18.60;99.90;;;;;;2586190;54;20878;31
2023/09/13 01:36:12;;;;;;;15.45;11.25;;;18.50;99.90;;;;;;2586303;54;20023;31
2023/09/13 01:38:47;;;;;;;16.60;11.45;;;18.50;99.90;;;;;;2586184;54;20678;31
2023/09/13 01:41:25;;;;;;;16.52;10.95;;;18.50;99.90;;;;;;2586058;54;20932;31
2023/09/13 01:44:00;;;;;;;11.80;7.63;;;18.50;99.90;;;;;;2586206;54;20121;31
2023/09/13 01:46:41;;;;;;;18.07;10.77;;;18.40;99.90;;;;;;2586347;54;21253;31
2023/09/13 01:49:20;;;;;;;17.33;11.13;;;18.40;99.90;;;;;;2585387;54;20049;31
2023/09/13 01:51:53;;;;;;;16.80;11.82;;;18.40;99.90;;;;;;2586040;54;20034;31
2023/09/13 01:54:36;;;;;;;15.00;10.55;;;18.40;99.90;;;;;;2585898;54;21552;31
2023/09/13 01:57:12;;;;;;;18.43;10.67;;;18.40;99.90;;;;;;2586420;54;20494;31
2023/09/13 01:59:52;;;;;;;19.80;11.00;;;18.40;99.90;;;;;;2701651;39;21551;31
2023/09/13 02:02:31;;;;;;;14.73;10.73;;;18.50;99.90;;;;;;2585356;54;20239;31
2023/09/13 02:05:08;;;;;;;15.32;10.40;;;18.60;99.90;;;;;;2586046;54;20030;31
2023/09/13 02:07:46;;;;;;;16.60;11.52;;;18.60;99.90;;;;;;2586246;54;20503;31
2023/09/13 02:10:27;;;;;;;15.52;10.77;;;18.50;99.90;;;;;;2585833;54;20733;31
2023/09/13 02:13:07;;;;;;;15.00;10.35;;;18.50;99.90;;;;;;2586262;54;20023;31
2023/09/13 02:15:42;;;;;;;17.60;11.30;;;18.50;99.90;;;;;;2585906;54;20050;31
2023/09/13 02:18:24;;;;;;;16.67;10.77;;;18.40;99.90;;;;;;2604587;46;20243;31
2023/09/13 02:20:59;;;;;;;18.08;11.93;;;18.40;99.90;;;;;;2585941;54;20045;31
2023/09/13 02:23:34;;;;;;;14.40;10.70;;;18.30;99.90;;;;;;2585587;54;20042;31
2023/09/13 02:26:13;;;;;;;15.55;11.43;;;18.30;99.90;;;;;;2586189;54;20759;31
2023/09/13 02:28:46;;;;;;;14.98;11.25;;;18.30;99.90;;;;;;2585837;54;21227;31
2023/09/13 02:31:29;;;;;;;17.67;11.37;;;18.30;99.90;;;;;;2604415;46;20023;31
2023/09/13 02:34:06;;;;;;;17.50;10.93;;;18.20;99.90;;;;;;2585946;54;21105;31
2023/09/13 02:36:49;;;;;;;14.40;10.55;;;18.20;99.90;;;;;;2584939;54;20943;31
2023/09/13 02:39:41;;;;;;;16.27;10.45;;;18.20;99.90;;;;;;2683671;39;20393;31
2023/09/13 02:42:15;;;;;;;15.95;10.77;;;18.10;99.90;;;;;;2585832;54;20861;31
2023/09/13 02:44:51;;;;;;;17.00;10.65;;;18.10;99.90;;;;;;2602945;46;20026;31
2023/09/13 02:47:26;;;;;;;14.75;10.85;;;18.10;99.90;;;;;;2586084;54;20868;31
2023/09/13 02:50:09;;;;;;;15.95;10.95;;;18.10;99.90;;;;;;2584937;54;20029;31
2023/09/13 02:52:52;;;;;;;18.37;11.47;;;18.10;99.90;;;;;;2584939;54;20046;31
2023/09/13 02:55:26;;;;;;;15.90;10.80;;;18.10;99.90;;;;;;2585750;54;20054;31
2023/09/13 02:58:05;;;;;;;18.77;11.60;;;18.10;99.90;;;;;;2594208;46;20880;31
2023/09/13 03:00:45;;;;;;;19.20;12.25;;;18.10;99.90;;;;;;2584882;54;20019;31
2023/09/13 03:03:19;;;;;;;16.25;11.05;;;18.00;99.90;;;;;;2683071;39;22408;31
2023/09/13 03:06:01;;;;;;;19.50;13.23;;;18.00;99.90;;;;;;2585050;54;20852;31
2023/09/13 03:08:37;;;;;;;16.75;10.80;;;18.00;99.90;;;;;;2585871;54;20027;31
2023/09/13 03:11:16;;;;;;;16.73;11.93;;;17.90;99.90;;;;;;2585705;54;20033;31
2023/09/13 03:13:53;;;;;;;19.85;11.23;;;17.90;99.90;;;;;;2584742;54;20881;31
2023/09/13 03:16:32;;;;;;;18.20;11.98;;;17.90;99.90;;;;;;2585013;54;20018;31
2023/09/13 03:19:10;;;;;;;19.10;12.25;;;17.80;99.90;;;;;;2586037;54;20845;31
2023/09/13 03:21:57;;;;;;;18.83;11.70;;;17.80;99.90;;;;;;2585660;54;20872;31
2023/09/13 03:24:35;;;;;;;16.40;10.95;;;17.80;99.90;;;;;;2604608;47;20931;31
2023/09/13 03:27:11;;;;;;;18.33;13.27;;;17.80;99.90;;;;;;2584796;54;20851;31
2023/09/13 03:29:49;;;;;;;19.50;11.82;;;17.80;99.90;;;;;;2584809;54;21026;31
2023/09/13 03:32:25;;;;;;;19.33;13.10;;;17.70;99.90;;;;;;2585877;54;19938;31
2023/09/13 03:35:03;;;;;;;18.40;12.10;;;17.70;99.90;;;;;;2603664;47;20089;31
2023/09/13 03:37:42;;;;;;;15.52;11.73;;;17.70;99.90;;;;;;2585663;54;20848;31
2023/09/13 03:40:21;;;;;;;20.33;12.93;;;17.70;99.90;;;;;;2584911;54;20048;31
2023/09/13 03:43:04;;;;;;;21.90;13.10;;;17.60;99.90;;;;;;2604162;47;20026;31
2023/09/13 03:45:39;;;;;;;19.10;12.00;;;17.60;99.90;;;;;;2585373;54;20046;31
2023/09/13 03:48:14;;;;;;;20.20;12.40;;;17.60;99.90;;;;;;2585637;54;20838;31
2023/09/13 03:50:55;;;;;;;15.25;10.85;;;17.60;99.90;;;;;;2585523;54;21017;31
2023/09/13 03:53:48;;;;;;;19.30;12.43;;;17.60;99.90;;;;;;2604068;47;20871;31
2023/09/13 03:56:27;;;;;;;17.45;12.30;;;17.60;99.90;;;;;;2585720;54;20049;31
2023/09/13 03:59:02;;;;;;;17.00;11.43;;;17.60;99.90;;;;;;2585768;54;20023;31
2023/09/13 04:01:48;;;;;;;20.33;12.40;;;17.50;99.90;;;;;;2585439;54;20110;31
2023/09/13 04:04:28;;;;;;;17.23;11.75;;;17.50;99.90;;;;;;2585679;54;20026;31
2023/09/13 04:07:08;;;;;;;18.33;12.17;;;17.50;99.90;;;;;;2585655;54;20875;31
2023/09/13 04:10:06;;;;;;;19.75;13.20;;;17.40;99.90;;;;;;2585911;54;20030;31
2023/09/13 04:12:39;;;;;;;20.97;13.17;;;17.40;99.90;;;;;;2586446;54;20785;31
2023/09/13 04:15:18;;;;;;;18.63;12.60;;;17.40;99.90;;;;;;2605141;46;20916;31
2023/09/13 04:17:59;;;;;;;18.83;12.20;;;17.40;99.90;;;;;;2586382;54;20877;31
2023/09/13 04:20:33;;;;;;;20.55;12.93;;;17.40;99.90;;;;;;2586065;54;20048;31
2023/09/13 04:26:08;;;;;;;19.95;13.35;;;17.40;99.90;;;;;;2586309;54;20910;31
2023/09/13 04:28:48;;;;;;;22.65;13.20;;;17.40;99.90;;;;;;2586216;54;20930;31
2023/09/13 04:31:23;;;;;;;17.85;12.48;;;17.30;99.90;;;;;;2586274;54;20981;31
2023/09/13 04:34:00;;;;;;;19.55;12.45;;;17.40;99.90;;;;;;2585664;54;20065;31
2023/09/13 04:36:40;;;;;;;18.67;12.97;;;17.30;99.90;;;;;;2586257;54;20085;31
2023/09/13 04:39:20;;;;;;;21.20;14.45;;;17.30;99.90;;;;;;2585477;54;20125;31
2023/09/13 04:41:58;;;;;;;18.45;13.00;;;17.30;99.90;;;;;;2586151;54;20030;31
2023/09/13 04:44:34;;;;;;;22.80;13.35;;;17.30;99.90;;;;;;2586290;54;20794;31
2023/09/13 04:47:10;;;;;;;19.20;13.35;;;17.30;99.90;;;;;;2586309;54;20026;31
2023/09/13 04:49:46;;;;;;;18.80;13.50;;;17.30;99.90;;;;;;2586365;54;20701;31
2023/09/13 04:52:21;;;;;;;18.52;13.27;;;17.30;99.90;;;;;;2586026;54;20938;31
2023/09/13 04:54:59;;;;;;;23.58;15.07;;;17.30;99.90;;;;;;2586161;54;20865;31
2023/09/13 04:57:39;;;;;;;19.15;12.82;;;17.30;99.90;;;;;;2586354;54;21004;31
2023/09/13 05:00:18;;;;;;;17.92;13.30;;;17.30;99.90;;;;;;2586289;54;20914;31
2023/09/13 05:02:54;;;;;;;21.08;15.02;;;17.40;99.90;;;;;;2592906;46;20780;31
2023/09/13 05:05:29;;;;;;;19.90;13.30;;;17.40;99.90;;;;;;2585461;54;20038;31
2023/09/13 05:08:11;;;;;;;22.40;14.98;;;17.40;99.90;;;;;;2586433;54;20963;31
2023/09/13 05:10:51;;;;;;;23.10;15.75;;;17.50;99.90;;;;;;2586228;54;20029;31
2023/09/13 05:13:28;;;;;;;21.60;12.98;;;17.50;99.90;;;;;;2586225;54;21044;31
2023/09/13 05:16:02;;;;;;;22.77;13.97;;;17.50;99.90;;;;;;2586332;54;20728;31
2023/09/13 05:18:40;;;;;;;22.58;14.25;;;17.50;99.90;;;;;;2585335;54;20037;31
2023/09/13 05:21:20;;;;;;;21.08;13.80;;;17.60;99.90;;;;;;2586148;54;20026;31
2023/09/13 05:23:56;;;;;;;22.48;14.15;;;17.70;99.90;;;;;;2586300;54;20033;31
2023/09/13 05:26:32;;;;;;;18.63;14.05;;;17.70;99.90;;;;;;2611429;46;20093;31
2023/09/13 05:29:11;;;;;;;20.15;13.70;;;17.70;99.90;;;;;;2586805;54;20026;31
2023/09/13 05:31:48;;;;;;;20.95;14.20;;;17.80;99.90;;;;;;2585969;54;21164;31
2023/09/13 05:34:26;;;;;;;20.40;14.30;;;17.90;99.90;;;;;;2585033;54;20877;31
2023/09/13 05:37:03;;;;;;;18.63;12.75;;;18.00;99.90;;;;;;2586115;54;20027;31
2023/09/13 05:39:40;;;;;;;23.97;15.50;;;18.10;99.90;;;;;;2585404;54;20104;31
2023/09/13 05:42:25;;;;;;;21.33;13.55;;;18.20;99.90;;;;;;2585261;54;20909;31
2023/09/13 05:45:09;;;;;;;20.15;13.85;;;18.30;99.90;;;;;;2585354;54;20897;31
2023/09/13 05:50:32;;;;;;;19.20;13.50;;;18.80;99.90;;;;;;2585705;54;20898;31
2023/09/13 05:53:13;;;;;;;19.07;12.93;;;19.00;99.90;;;;;;2585969;54;20109;31
2023/09/13 05:55:52;;;;;;;19.97;13.00;;;19.30;99.90;;;;;;2585649;54;20864;31
2023/09/13 05:58:32;;;;;;;18.40;14.40;;;19.60;99.90;;;;;;2683547;39;21085;31
2023/09/13 06:01:10;;;;;;;16.93;12.67;;;19.90;99.90;;;;;;2601385;46;20058;31
2023/09/13 06:03:50;;;;;;;18.37;13.30;;;20.10;99.90;;;;;;2604606;46;20950;31
2023/09/13 06:06:27;;;;;;;16.70;12.73;;;20.40;99.90;;;;;;2586289;54;21009;31
2023/09/13 06:09:03;;;;;;;16.75;12.38;;;20.60;99.90;;;;;;2585954;54;20904;31
2023/09/13 06:11:41;;;;;;;16.10;11.90;;;20.90;99.90;;;;;;2586283;54;20018;31
2023/09/13 06:14:18;;;;;;;16.27;11.48;;;21.20;99.90;;;;;;2598848;46;20948;31
2023/09/13 06:16:56;;;;;;;18.90;12.50;;;21.50;99.90;;;;;;2586018;54;20873;31
2023/09/13 06:19:37;;;;;;;15.23;11.40;;;21.80;99.90;;;;;;2586245;54;20875;31
2023/09/13 06:22:17;;;;;;;16.98;11.85;;;22.00;99.90;;;;;;2604239;46;20048;31
2023/09/13 06:24:55;;;;;;;19.23;12.33;;;22.20;99.90;;;;;;2586314;54;20872;31
2023/09/13 06:27:39;;;;;;;18.13;13.60;;;22.20;99.90;;;;;;2585839;54;20022;31
2023/09/13 06:30:19;;;;;;;14.38;10.95;;;22.30;99.90;;;;;;2604361;46;20030;31
2023/09/13 06:32:56;;;;;;;18.50;13.40;;;22.60;99.90;;;;;;2585645;54;20022;31
2023/09/13 06:35:46;;;;;;;15.57;12.10;;;22.80;99.90;;;;;;2586134;54;20733;31
2023/09/13 06:38:26;;;;;;;15.10;11.95;;;23.00;99.90;;;;;;2586091;54;20751;31
2023/09/13 06:41:03;;;;;;;14.10;11.33;;;23.30;99.90;;;;;;2586001;54;20863;31
2023/09/13 06:43:41;;;;;;;14.50;11.25;;;23.60;99.90;;;;;;2682930;39;21524;31
2023/09/13 06:46:40;;;;;;;17.92;12.38;;;23.80;99.90;;;;;;2604744;46;20828;31
2023/09/13 06:49:30;;;;;;;16.35;11.35;;;24.10;99.90;;;;;;2585250;54;20852;31
2023/09/13 06:52:09;;;;;;;16.63;12.63;;;24.30;99.90;;;;;;2585880;54;20053;31
2023/09/13 06:54:51;;;;;;;16.23;11.95;;;24.60;99.90;;;;;;2585808;54;20031;31
2023/09/13 06:57:30;;;;;;;16.75;12.00;;;24.90;99.90;;;;;;2586419;46;21385;31
2023/09/13 07:00:14;;;;;;;13.67;10.80;;;25.10;99.90;;;;;;2604623;46;20906;31
2023/09/13 07:03:08;;;;;;;17.95;12.25;;;25.40;99.90;;;;;;2604251;46;20026;31
2023/09/13 07:05:55;;;;;;;14.27;11.33;;;25.60;99.90;;;;;;2586027;54;20029;31
2023/09/13 07:08:37;;;;;;;14.60;11.57;;;25.80;99.90;;;;;;2585475;54;20304;31
2023/09/13 07:11:19;;;;;;;15.55;11.68;;;25.90;99.90;;;;;;2585907;54;20029;31
2023/09/13 07:13:58;;;;;;;16.40;12.37;;;26.20;99.90;;;;;;2585544;54;20050;31
2023/09/13 07:16:36;;;;;;;13.18;10.30;;;26.30;99.90;;;;;;2585433;54;20064;31
2023/09/13 07:19:31;;;;;;;17.10;11.20;;;26.50;99.90;;;;;;2585802;54;20904;31
2023/09/13 07:22:16;;;;;;;14.45;10.00;;;26.80;99.90;;;;;;2585599;54;20495;31
2023/09/13 07:24:50;;;;;;;14.07;9.88;;;27.10;99.90;;;;;;2585714;54;20464;31
2023/09/13 07:27:26;;;;;;;16.88;10.15;;;27.30;99.90;;;;;;2585643;54;20026;31
2023/09/13 07:30:09;;;;;;;14.43;10.15;;;27.50;99.90;;;;;;2586127;54;20022;31
2023/09/13 07:32:45;;;;;;;12.37;9.50;;;27.70;99.90;;;;;;2585810;54;20030;31
2023/09/13 07:35:22;;;;;;;13.95;9.45;;;28.00;99.90;;;;;;2585937;54;21895;31
2023/09/13 07:38:01;;;;;;;13.93;8.87;;;28.20;99.90;;;;;;2604343;47;20261;31
2023/09/13 07:40:38;;;;;;;10.80;9.05;;;28.40;99.90;;;;;;2604264;47;20309;31
2023/09/13 07:43:24;;;;;;;11.80;8.70;;;28.60;99.90;;;;;;2604324;47;20032;31
2023/09/13 07:46:06;;;;;;;11.05;8.50;;;28.90;99.90;;;;;;2586609;54;20847;31
2023/09/13 07:48:43;;;;;;;12.65;7.75;;;29.00;99.90;;;;;;2684653;39;21513;31
2023/09/13 07:51:23;;;;;;;11.95;8.43;;;29.10;99.90;;;;;;2695787;39;21478;31
2023/09/13 07:54:09;;;;;;;12.88;8.50;;;29.30;99.90;;;;;;2586710;54;20749;31
2023/09/13 07:56:47;;;;;;;12.70;10.70;;;29.60;99.90;;;;;;2684269;39;21541;31
2023/09/13 07:59:22;;;;;;;9.60;7.90;;;29.80;99.90;;;;;;2586171;54;20272;31
2023/09/13 08:05:15;;;;;;;13.73;8.38;;;30.20;99.90;;;;;;2586529;54;20038;31
2023/09/13 08:07:55;;;;;;;9.85;7.80;;;30.30;99.90;;;;;;2683709;39;22412;31
2023/09/13 08:11:18;;;;;;;12.90;8.57;;;30.50;99.90;;;;;;2586705;54;20253;31
2023/09/13 08:14:10;;;;;;;8.38;7.28;;;30.60;99.90;;;;;;2586256;54;20841;31
2023/09/13 08:16:48;;;;;;;11.83;7.27;;;30.80;99.90;;;;;;2585859;54;20935;31
2023/09/13 08:19:27;;;;;;;9.40;7.10;;;30.90;99.90;;;;;;2604733;46;20773;31
2023/09/13 08:25:28;;;;;;;10.00;7.40;;;31.00;99.90;;;;;;2586315;54;20925;31
2023/09/13 08:28:25;;;;;;;12.33;7.07;;;31.00;99.90;;;;;;2586429;54;20047;31
2023/09/13 08:31:18;;;;;;;8.35;6.97;;;31.10;99.90;;;;;;2586470;54;20037;31
2023/09/13 08:34:01;;;;;;;8.50;6.95;;;31.30;99.90;;;;;;2702796;39;20432;31
2023/09/13 08:39:33;;;;;;;9.93;7.32;;;31.60;99.90;;;;;;2605397;46;20848;31
2023/09/13 08:45:17;;;;;;;8.17;6.90;;;31.70;99.90;;;;;;2585729;54;20040;31
2023/09/13 08:48:09;;;;;;;9.30;7.33;;;31.90;99.90;;;;;;2604398;46;21715;31
2023/09/13 08:54:13;;;;;;;9.60;6.80;;;32.00;99.90;;;;;;2586089;54;20026;31
2023/09/13 08:56:51;;;;;;;11.13;7.43;;;32.20;99.90;;;;;;2586424;54;21290;31
2023/09/13 08:59:32;;;;;;;10.75;7.60;;;32.30;99.90;;;;;;2586351;54;20053;31
2023/09/13 09:02:44;;;;;;;8.80;6.87;;;32.50;99.90;;;;;;2586304;54;20038;31
2023/09/13 09:05:34;;;;;;;9.15;6.63;;;32.60;99.90;;;;;;2586218;54;20034;31
2023/09/13 09:12:06;;;;;;;8.68;6.82;;;32.50;99.90;;;;;;2593824;46;20030;31
2023/09/13 09:15:07;;;;;;;8.35;5.78;;;32.70;99.90;;;;;;2586274;54;20825;31
2023/09/13 09:17:53;;;;;;;10.20;6.80;;;32.90;99.90;;;;;;2585951;54;20030;31
2023/09/13 09:20:34;;;;;;;8.88;6.65;;;32.90;99.90;;;;;;2586221;54;21514;31
2023/09/13 09:23:16;;;;;;;8.88;6.47;;;33.00;99.90;;;;;;2586535;54;20955;31
2023/09/13 09:25:55;;;;;;;8.35;7.30;;;33.10;99.90;;;;;;2586264;54;20860;31
2023/09/13 09:28:31;;;;;;;9.95;7.15;;;33.10;99.90;;;;;;2589874;46;20884;31
2023/09/13 09:31:14;;;;;;;8.25;7.10;;;33.00;99.90;;;;;;2585701;54;21111;31
2023/09/13 09:33:52;;;;;;;9.10;6.33;;;33.10;99.90;;;;;;2586070;54;20041;31
2023/09/13 09:36:34;;;;;;;7.97;6.87;;;33.20;99.90;;;;;;2586268;54;20241;31
2023/09/13 09:39:10;;;;;;;8.40;6.05;;;33.30;99.80;;;;;;2586540;54;20038;31
2023/09/13 09:41:50;;;;;;;9.45;7.03;;;33.30;99.70;;;;;;2604757;46;20027;31
2023/09/13 09:44:26;;;;;;;11.20;6.60;;;33.20;99.10;;;;;;2586468;54;20026;31
2023/09/13 09:47:10;;;;;;;8.13;6.70;;;32.80;99.40;;;;;;2586282;54;20033;31
2023/09/13 09:49:50;;;;;;;6.73;6.00;;;32.50;99.90;;;;;;2586251;54;20037;31
2023/09/13 09:52:26;;;;;;;10.30;7.17;;;32.30;99.60;;;;;;2585571;54;20153;31
2023/09/13 09:58:03;;;;;;;9.93;6.97;;;32.30;99.90;;;;;;2586013;54;20064;31
2023/09/13 10:00:56;;;;;;;8.63;7.32;;;32.20;99.90;;;;;;2585358;54;20942;31
2023/09/13 10:03:35;;;;;;;9.82;7.90;;;32.30;99.90;;;;;;2586455;54;20865;31
2023/09/13 10:06:16;;;;;;;8.63;7.05;;;32.30;99.90;;;;;;2586358;54;21026;31
2023/09/13 10:08:51;;;;;;;7.85;6.22;;;32.40;99.90;;;;;;2585317;54;21105;31
2023/09/13 10:11:29;;;;;;;8.95;7.40;;;32.50;99.90;;;;;;2586442;54;20756;31
2023/09/13 10:14:06;;;;;;;8.52;6.95;;;32.70;99.90;;;;;;2604647;46;20937;31
2023/09/13 10:16:52;;;;;;;9.50;7.10;;;32.70;99.90;;;;;;2586121;54;20101;31
2023/09/13 10:19:39;;;;;;;11.18;8.43;;;32.80;99.90;;;;;;2586171;54;20078;31
2023/09/13 10:22:35;;;;;;;8.23;6.97;;;32.80;99.90;;;;;;2586402;54;20026;31
2023/09/13 10:25:14;;;;;;;8.43;6.78;;;32.50;99.90;;;;;;2604497;46;21034;31
2023/09/13 10:27:56;;;;;;;10.10;7.50;;;32.50;99.90;;;;;;2585349;54;20904;31
2023/09/13 10:30:38;;;;;;;8.40;7.00;;;32.50;99.90;;;;;;2604559;46;21275;31
2023/09/13 10:33:17;;;;;;;12.38;7.60;;;32.40;99.90;;;;;;2585931;54;20034;31
2023/09/13 10:35:58;;;;;;;9.20;7.45;;;32.40;99.90;;;;;;2604765;46;20830;31
2023/09/13 10:38:41;;;;;;;10.07;7.47;;;32.40;99.90;;;;;;2586023;54;20063;31
2023/09/13 10:41:25;;;;;;;7.60;6.75;;;32.40;99.90;;;;;;2586095;54;20113;31
2023/09/13 10:44:07;;;;;;;10.75;7.75;;;32.50;99.90;;;;;;2586000;54;20085;31
2023/09/13 10:46:49;;;;;;;10.00;7.00;;;32.50;99.90;;;;;;2585974;54;20029;31
2023/09/13 10:49:28;;;;;;;7.60;6.80;;;32.50;99.90;;;;;;2585930;54;20849;31
2023/09/13 10:52:14;;;;;;;8.50;7.30;;;32.60;99.90;;;;;;2604344;46;20033;31
2023/09/13 10:55:03;;;;;;;10.60;6.65;;;32.60;99.90;;;;;;2604482;46;20859;31
2023/09/13 10:57:52;;;;;;;9.75;6.90;;;32.60;99.90;;;;;;2586245;54;20930;31
2023/09/13 11:00:37;;;;;;;10.80;7.30;;;32.50;99.90;;;;;;2585447;54;20927;31
2023/09/13 11:03:17;;;;;;;7.87;6.60;;;32.50;99.90;;;;;;2590757;46;21006;31
2023/09/13 11:05:59;;;;;;;9.75;7.20;;;32.40;99.90;;;;;;2586147;54;21067;31
2023/09/13 11:08:47;;;;;;;11.10;7.30;;;32.50;99.90;;;;;;2587288;46;20056;31
2023/09/13 11:11:31;;;;;;;8.30;7.03;;;32.30;99.90;;;;;;2586070;54;20049;31
2023/09/13 11:14:19;;;;;;;9.38;7.05;;;32.30;99.90;;;;;;2585982;54;20852;31
2023/09/13 11:17:19;;;;;;;9.60;6.70;;;32.30;99.90;;;;;;2604452;46;20034;31
2023/09/13 11:19:55;;;;;;;9.80;6.75;;;32.30;99.90;;;;;;2586198;54;20779;31
2023/09/13 11:22:42;;;;;;;10.07;6.25;;;32.30;99.90;;;;;;2604372;46;20026;31
2023/09/13 11:25:20;;;;;;;;;;;32.10;99.90;;;;;;2585583;54;20756;31
2023/09/13 11:28:10;;;;;;;8.55;6.55;;;32.00;99.90;;;;;;2587019;54;19941;31
2023/09/13 11:30:51;;;;;;;7.22;6.45;;;31.90;99.90;;;;;;2683712;39;21665;31
2023/09/13 11:33:33;;;;;;;42.65;38.05;;;32.00;99.90;;;;;;2585501;54;20915;31
2023/09/13 11:36:11;;;;;;;11.15;8.65;;;31.90;99.90;;;;;;2604164;47;20108;31
2023/09/13 11:38:46;;;;;;;8.33;7.07;;;31.80;99.90;;;;;;2585791;54;20022;31
2023/09/13 11:41:22;;;;;;;9.65;7.05;;;31.50;99.90;;;;;;2585878;54;20030;31
2023/09/13 11:44:02;;;;;;;12.55;7.30;;;31.30;99.90;;;;;;2604537;47;20775;31
2023/09/13 11:46:41;;;;;;;11.70;7.70;;;31.10;99.90;;;;;;2585910;54;20958;31
2023/09/13 11:49:23;;;;;;;10.98;7.60;;;30.90;99.90;;;;;;2585670;54;20250;31
2023/09/13 11:52:12;;;;;;;11.88;8.40;;;30.80;99.90;;;;;;2585752;54;20037;31
2023/09/13 11:55:11;;;;;;;11.82;8.70;;;30.50;99.90;;;;;;2585711;54;20027;31
2023/09/13 11:58:08;;;;;;;9.82;8.10;;;30.30;99.90;;;;;;2604201;47;20081;31
2023/09/13 12:01:03;;;;;;;10.80;8.73;;;30.00;99.90;;;;;;2585102;54;20027;31
2023/09/13 12:03:43;;;;;;;14.00;8.80;;;29.60;99.90;;;;;;2599795;47;20264;31
2023/09/13 12:06:25;;;;;;;9.47;8.47;;;29.30;99.90;;;;;;2599696;47;19931;31
2023/09/13 12:09:08;;;;;;;;;;;29.00;99.90;;;;;;2585976;54;19942;31
2023/09/13 12:11:49;;;;;;;11.23;7.75;;;28.80;99.90;;;;;;2584934;54;19954;31
2023/09/13 12:14:30;;;;;;;10.57;8.60;;;28.50;99.90;;;;;;2584905;54;20034;31
2023/09/13 12:17:39;;;;;;;12.80;8.70;;;28.30;99.90;;;;;;2585986;54;20030;31
2023/09/13 12:20:14;;;;;;;16.55;9.80;;;28.10;99.90;;;;;;2604387;47;20866;31
2023/09/13 12:22:52;;;;;;;13.47;9.87;;;27.90;99.90;;;;;;2596847;47;20755;31
2023/09/13 12:25:26;;;;;;;13.60;10.10;;;27.90;99.90;;;;;;2603164;47;20903;31
2023/09/13 12:28:09;;;;;;;13.40;10.48;;;28.00;99.90;;;;;;2585814;54;20027;31
2023/09/13 12:30:47;;;;;;;11.15;9.55;;;28.10;99.90;;;;;;2603915;47;20030;31
2023/09/13 12:33:34;;;;;;;17.25;13.73;;;28.10;99.90;;;;;;2585694;54;20089;31
2023/09/13 12:36:17;;;;;;;14.82;11.25;;;28.10;99.90;;;;;;2586102;54;20103;31
2023/09/13 12:38:55;;;;;;;14.45;11.65;;;28.00;99.90;;;;;;2585728;54;20760;31
2023/09/13 12:41:34;;;;;;;12.10;9.50;;;27.90;99.90;;;;;;2585531;54;20029;31
2023/09/13 12:44:20;;;;;;;11.02;9.00;;;28.00;99.90;;;;;;2586301;54;21103;31
2023/09/13 12:46:54;;;;;;;10.35;8.70;;;28.10;99.90;;;;;;2684181;39;21609;31
2023/09/13 12:49:37;;;;;;;12.63;9.47;;;28.10;99.90;;;;;;2586519;54;20022;31
2023/09/13 12:52:14;;;;;;;10.20;8.70;;;28.00;99.90;;;;;;2586129;54;20033;31
2023/09/13 12:55:01;;;;;;;16.37;10.13;;;28.00;99.90;;;;;;2586443;54;20839;31
2023/09/13 12:57:57;;;;;;;11.63;9.48;;;27.90;99.90;;;;;;2605088;46;20898;31
2023/09/13 13:00:58;;;;;;;14.60;9.70;;;27.80;99.90;;;;;;2586415;54;20731;31
2023/09/13 13:03:40;;;;;;;9.30;8.20;;;27.60;99.90;;;;;;2586193;54;20904;31
2023/09/13 13:09:08;;;;;;;10.43;8.68;;;27.50;99.90;;;;;;2586328;54;20269;31
2023/09/13 13:11:43;;;;;;;11.52;8.38;;;27.40;99.90;;;;;;2585619;54;21630;31
2023/09/13 13:14:23;;;;;;;13.18;10.00;;;27.30;99.90;;;;;;2604668;46;20997;31
2023/09/13 13:17:00;;;;;;;12.70;9.83;;;27.30;99.90;;;;;;2754045;31;21645;31
2023/09/13 13:19:40;;;;;;;11.30;9.00;;;27.20;99.90;;;;;;2585744;54;20242;31
2023/09/13 13:22:35;;;;;;;11.18;8.60;;;27.20;99.90;;;;;;2586459;54;20089;31
2023/09/13 13:25:20;;;;;;;10.52;8.93;;;27.20;99.90;;;;;;2586533;54;20037;31
2023/09/13 13:27:56;;;;;;;10.37;8.87;;;27.20;99.90;;;;;;2586562;54;20061;31
2023/09/13 13:30:36;;;;;;;11.00;8.40;;;27.20;99.90;;;;;;2585936;54;20250;31
2023/09/13 13:33:14;;;;;;;9.80;8.60;;;27.10;99.90;;;;;;2586676;54;19934;31
2023/09/13 13:35:56;;;;;;;15.37;11.47;;;27.00;99.90;;;;;;2683890;39;21748;31
2023/09/13 13:38:50;;;;;;;12.68;11.10;;;27.00;99.90;;;;;;2604786;46;20293;31
2023/09/13 13:41:28;;;;;;;9.75;8.75;;;27.00;99.90;;;;;;2604549;46;20022;31
2023/09/13 13:44:08;;;;;;;15.13;10.05;;;26.90;99.90;;;;;;2586488;54;20096;31
2023/09/13 13:46:48;;;;;;;11.38;8.27;;;26.90;99.90;;;;;;2586277;54;20779;31
2023/09/13 13:49:25;;;;;;;9.30;8.30;;;26.80;99.90;;;;;;2585987;54;20016;31
2023/09/13 13:52:02;;;;;;;14.00;8.80;;;26.80;99.90;;;;;;2586385;54;20767;31
2023/09/13 13:54:41;;;;;;;10.87;9.23;;;26.80;99.90;;;;;;2686918;39;21418;31
2023/09/13 13:57:27;;;;;;;13.60;9.20;;;26.80;99.90;;;;;;2604718;46;20047;31
2023/09/13 14:00:15;;;;;;;11.47;9.47;;;26.90;99.90;;;;;;2586734;54;21527;31
2023/09/13 14:02:54;;;;;;;12.93;9.02;;;27.00;99.90;;;;;;2604942;46;20257;31
2023/09/13 14:05:31;;;;;;;12.25;8.75;;;27.10;99.90;;;;;;2604703;46;20046;31
2023/09/13 14:08:12;;;;;;;15.40;9.02;;;27.20;99.90;;;;;;2683905;39;21593;31
2023/09/13 14:10:53;;;;;;;13.57;9.02;;;27.20;99.90;;;;;;2586384;54;20093;31
2023/09/13 14:13:30;;;;;;;10.27;7.87;;;27.30;99.90;;;;;;2586329;54;21604;31
2023/09/13 14:16:13;;;;;;;9.43;8.35;;;27.30;99.90;;;;;;2683191;39;21595;31
2023/09/13 14:18:49;;;;;;;11.35;8.50;;;27.30;99.90;;;;;;2684149;39;21377;31
2023/09/13 14:21:25;;;;;;;11.00;8.40;;;27.30;99.90;;;;;;2586176;54;20546;31
2023/09/13 14:24:09;;;;;;;15.15;10.77;;;27.20;99.90;;;;;;2604937;46;20113;31
2023/09/13 14:26:45;;;;;;;10.23;8.77;;;27.20;99.90;;;;;;2586089;54;20030;31